Time;durP1;ratioP1;P1;durP2;ratioP2;P2;SDS_P1;SDS_P2;PMS_P1;PMS_P2;Temp;Humidity;BMP_temperature;BMP_pressure;BME280_temperature;BME280_humidity;BME280_pressure;Samples;Min_cycle;Max_cycle;Signal;HPM_P1;HPM_P2
2023/04/27 00:00:25;;;;;;;12.63;5.00;;;;;;;15.47;100.00;100530.56;2080588;28;20111;-74
2023/04/27 00:01:47;;;;;;;14.60;4.78;;;;;;;15.46;100.00;100521.69;2078371;28;20053;-74
2023/04/27 00:03:09;;;;;;;10.77;4.88;;;;;;;15.47;100.00;100527.91;2069830;28;20458;-74
2023/04/27 00:04:31;;;;;;;12.55;4.88;;;;;;;15.45;100.00;100519.03;2083733;28;20425;-74
2023/04/27 00:05:53;;;;;;;11.02;4.57;;;;;;;15.42;100.00;100517.31;2080634;28;20462;-74
2023/04/27 00:07:15;;;;;;;14.50;5.07;;;;;;;15.40;100.00;100527.06;2069229;28;20057;-74
2023/04/27 00:08:38;;;;;;;10.98;4.05;;;;;;;15.41;100.00;100530.59;2083468;28;20087;-75
2023/04/27 00:10:00;;;;;;;9.98;4.50;;;;;;;15.40;100.00;100524.41;2072570;28;20050;-74
2023/04/27 00:11:22;;;;;;;13.07;4.40;;;;;;;15.41;100.00;100520.84;2082580;28;20067;-74
2023/04/27 00:12:45;;;;;;;13.70;4.43;;;;;;;15.41;100.00;100525.28;2075838;28;20140;-73
2023/04/27 00:14:08;;;;;;;14.90;5.13;;;;;;;15.41;100.00;100515.53;2086208;28;20389;-74
2023/04/27 00:15:32;;;;;;;14.73;5.15;;;;;;;15.40;100.00;100519.09;2086066;28;20513;-74
2023/04/27 00:16:55;;;;;;;10.60;4.47;;;;;;;15.40;100.00;100504.91;2078350;28;20045;-74
2023/04/27 00:18:16;;;;;;;17.08;5.28;;;;;;;15.40;100.00;100510.22;2083745;28;20144;-74
2023/04/27 00:19:40;;;;;;;12.07;5.00;;;;;;;15.38;100.00;100509.34;2086045;28;20053;-75
2023/04/27 00:21:01;;;;;;;10.60;5.13;;;;;;;15.33;100.00;100509.38;2078416;28;20102;-74
2023/04/27 00:22:24;;;;;;;12.40;5.15;;;;;;;15.31;100.00;100507.63;2082847;28;20095;-75
2023/04/27 00:23:47;;;;;;;13.45;5.18;;;;;;;15.31;100.00;100507.63;2086271;28;20095;-75
2023/04/27 00:25:10;;;;;;;12.77;5.00;;;;;;;15.30;100.00;100506.72;2086308;28;20091;-75
2023/04/27 00:26:33;;;;;;;12.45;5.05;;;;;;;15.29;100.00;100504.09;2077791;28;20048;-74
2023/04/27 00:27:56;;;;;;;11.68;4.93;;;;;;;15.29;100.00;100504.09;2061643;28;20054;-75
2023/04/27 00:29:20;;;;;;;13.23;5.10;;;;;;;15.29;100.00;100509.44;2081293;28;20437;-75
2023/04/27 00:30:43;;;;;;;13.55;5.13;;;;;;;15.29;100.00;100509.44;2072174;28;20450;-75
2023/04/27 00:32:07;;;;;;;11.98;5.43;;;;;;;15.27;100.00;100508.53;2083779;28;20048;-74
2023/04/27 00:33:28;;;;;;;15.77;5.93;;;;;;;15.24;100.00;100513.88;2072476;28;20046;-75
2023/04/27 00:34:51;;;;;;;13.95;4.63;;;;;;;15.21;100.00;100505.94;2069361;28;20049;-74
2023/04/27 00:36:12;;;;;;;15.55;5.63;;;;;;;15.18;100.00;100504.16;2058887;28;20050;-75
2023/04/27 00:37:36;;;;;;;15.68;5.55;;;;;;;15.16;100.00;100509.50;2072404;28;20074;-74
2023/04/27 00:38:58;;;;;;;15.30;5.80;;;;;;;15.13;100.00;100498.91;2075154;28;20046;-74
2023/04/27 00:40:21;;;;;;;14.93;5.95;;;;;;;15.09;100.00;100502.47;2075150;28;20045;-74
2023/04/27 00:41:43;;;;;;;13.23;5.82;;;;;;;15.04;100.00;100509.59;2083838;28;20525;-73
2023/04/27 00:43:06;;;;;;;13.57;5.28;;;;;;;15.00;100.00;100505.19;2077635;28;20092;-76
2023/04/27 00:44:27;;;;;;;15.85;6.18;;;;;;;14.94;100.00;100507.88;2077922;28;20098;-75
2023/04/27 00:45:52;;;;;;;13.68;5.10;;;;;;;14.92;100.00;100508.78;2076843;28;20041;-76
2023/04/27 00:47:16;;;;;;;14.93;5.80;;;;;;;14.87;100.00;100505.28;2085981;28;20115;-74
2023/04/27 00:48:37;;;;;;;14.32;5.05;;;;;;;14.80;100.00;100496.47;2080730;28;20501;-75
2023/04/27 00:50:00;;;;;;;12.60;5.50;;;;;;;14.79;100.00;100496.47;2083221;28;20036;-74
2023/04/27 00:51:26;;;;;;;12.35;5.20;;;;;;;14.81;100.00;100506.19;2070647;28;20133;-75
2023/04/27 00:52:47;;;;;;;14.38;5.07;;;;;;;14.81;100.00;100503.53;2082495;28;20159;-74
2023/04/27 00:54:12;;;;;;;11.93;5.40;;;;;;;14.83;100.00;100504.44;2077951;28;20088;-75
2023/04/27 00:55:34;;;;;;;11.57;5.05;;;;;;;14.81;100.00;100506.19;2074196;28;20049;-74
2023/04/27 00:56:57;;;;;;;12.88;5.18;;;;;;;14.80;100.00;100504.44;2075323;28;20079;-75
2023/04/27 00:58:19;;;;;;;13.02;5.35;;;;;;;14.75;100.00;100515.09;2063838;28;20046;-74
2023/04/27 00:59:41;;;;;;;12.70;4.93;;;;;;;14.72;100.00;100500.94;2064378;28;20463;-75
2023/04/27 01:01:04;;;;;;;13.10;5.15;;;;;;;14.69;100.00;100511.59;2061593;28;20038;-75
2023/04/27 01:02:27;;;;;;;13.45;4.90;;;;;;;14.69;100.00;100514.25;2067317;28;20050;-75
2023/04/27 01:03:49;;;;;;;10.68;5.18;;;;;;;14.71;100.00;100517.75;2077630;28;20050;-74
2023/04/27 01:05:12;;;;;;;13.93;5.30;;;;;;;14.75;100.00;100519.53;2072087;28;20410;-74
2023/04/27 01:06:34;;;;;;;11.57;5.00;;;;;;;14.74;100.00;100518.63;2069669;28;20046;-75
2023/04/27 01:07:56;;;;;;;10.82;4.90;;;;;;;14.77;100.00;100520.38;2077099;28;20060;-75
2023/04/27 01:09:19;;;;;;;15.48;5.70;;;;;;;14.80;100.00;100508.84;2074028;28;20037;-75
2023/04/27 01:10:44;;;;;;;15.32;5.30;;;;;;;14.83;100.00;100514.16;2076286;28;20096;-75
2023/04/27 01:12:06;;;;;;;15.00;5.00;;;;;;;14.83;100.00;100519.50;2082883;28;20429;-74
2023/04/27 01:13:29;;;;;;;10.52;3.92;;;;;;;14.87;100.00;100531.84;2086026;28;20111;-74
2023/04/27 01:14:50;;;;;;;12.93;4.57;;;;;;;14.89;100.00;100523.00;2085910;28;20057;-74
2023/04/27 01:16:14;;;;;;;11.45;4.57;;;;;;;14.91;100.00;100518.53;2085672;28;20048;-74
2023/04/27 01:17:35;;;;;;;12.18;3.78;;;;;;;14.94;100.00;100515.88;2086045;28;20045;-74
2023/04/27 01:19:00;;;;;;;8.50;3.00;;;;;;;15.00;100.00;100526.47;2069185;28;20056;-74
2023/04/27 01:20:21;;;;;;;7.97;3.47;;;;;;;15.07;100.00;100528.19;2075370;28;20042;-74
2023/04/27 01:21:44;;;;;;;12.40;3.97;;;;;;;15.11;100.00;100519.28;2074974;28;20061;-73
2023/04/27 01:23:06;;;;;;;9.60;3.20;;;;;;;15.15;100.00;100523.72;2076367;28;20049;-74
2023/04/27 01:24:31;;;;;;;6.97;2.72;;;;;;;15.19;100.00;100523.66;2077718;28;20042;-74
2023/04/27 01:25:53;;;;;;;7.57;2.55;;;;;;;15.22;100.00;100518.34;2077576;28;20064;-74
2023/04/27 01:27:15;;;;;;;5.40;1.90;;;;;;;15.29;100.00;100520.06;2077509;28;20130;-74
2023/04/27 01:28:38;;;;;;;10.93;2.22;;;;;;;15.43;100.00;100515.50;2074850;28;20144;-73
2023/04/27 01:29:59;;;;;;;6.47;1.60;;;;;;;15.56;100.00;100506.53;2075045;28;20111;-74
2023/04/27 01:31:22;;;;;;;7.20;1.88;;;;;;;15.66;100.00;100516.22;2082800;28;20065;-74
2023/04/27 01:32:43;;;;;;;5.53;1.77;;;;;;;15.74;100.00;100503.75;2085527;28;20171;-74
2023/04/27 01:34:06;;;;;;;12.50;2.20;;;;;;;15.83;100.00;100506.28;2085737;28;20048;-74
2023/04/27 01:35:27;;;;;;;6.40;1.85;;;;;;;15.89;100.00;100492.03;2063803;28;20057;-74
2023/04/27 01:36:49;;;;;;;8.88;1.75;;;;;;;15.92;100.00;100503.56;2066575;28;20078;-74
2023/04/27 01:38:11;;;;;;;5.55;1.80;;;;;;;15.98;100.00;100501.72;2071434;28;20057;-74
2023/04/27 01:39:36;;;;;;;7.82;1.90;;;;;;;16.00;100.00;100507.91;2085266;28;20049;-74
2023/04/27 01:41:00;;;;;;;7.07;1.80;;;;;;;16.04;100.00;100502.53;2086085;28;20057;-74
2023/04/27 01:42:23;;;;;;;6.57;1.65;;;;;;;16.04;100.00;100502.53;2080216;28;20051;-74
2023/04/27 01:43:44;;;;;;;5.05;1.40;;;;;;;16.05;100.00;100498.09;2079944;28;20474;-74
2023/04/27 01:45:08;;;;;;;8.05;1.40;;;;;;;16.10;100.00;100499.78;2085625;28;20087;-75
2023/04/27 01:46:29;;;;;;;6.18;1.50;;;;;;;16.13;100.00;100497.09;2079044;28;20048;-75
2023/04/27 01:47:52;;;;;;;8.52;1.85;;;;;;;16.15;100.00;100495.28;2077276;28;20066;-75
2023/04/27 01:49:15;;;;;;;6.60;1.60;;;;;;;16.19;100.00;100493.50;2077871;28;20593;-74
2023/04/27 01:50:37;;;;;;;6.53;1.58;;;;;;;16.22;100.00;100488.09;2074970;28;20049;-74
2023/04/27 01:51:59;;;;;;;6.63;1.55;;;;;;;16.24;100.00;100495.19;2082700;28;20580;-74
2023/04/27 01:53:22;;;;;;;7.65;1.67;;;;;;;16.25;100.00;100483.66;2079733;28;20044;-75
2023/04/27 01:54:44;;;;;;;7.13;2.00;;;;;;;16.27;100.00;100478.31;2066877;28;20061;-74
2023/04/27 01:56:07;;;;;;;6.50;1.67;;;;;;;16.25;100.00;100482.75;2071463;28;20715;-74
2023/04/27 01:57:30;;;;;;;8.07;1.50;;;;;;;16.24;100.00;100476.56;2074933;28;20057;-74
2023/04/27 01:58:53;;;;;;;6.32;1.50;;;;;;;16.25;100.00;100483.66;2077726;28;20128;-74
2023/04/27 02:00:16;;;;;;;8.88;1.50;;;;;;;16.27;100.00;100483.63;2074536;28;20045;-74
2023/04/27 02:01:44;;;;;;;7.55;1.67;;;;;;;16.25;100.00;100491.63;2084795;28;20057;-74
2023/04/27 02:03:06;;;;;;;8.05;1.50;;;;;;;16.27;100.00;100483.63;2085647;28;20053;-74
2023/04/27 02:04:28;;;;;;;7.43;1.73;;;;;;;16.29;100.00;100481.81;2085262;28;20074;-74
2023/04/27 02:05:49;;;;;;;7.88;1.90;;;;;;;16.28;100.00;100482.72;2085651;28;20045;-74
2023/04/27 02:07:12;;;;;;;8.32;1.70;;;;;;;16.28;100.00;100472.94;2077416;28;20045;-74
2023/04/27 02:08:33;;;;;;;10.43;1.77;;;;;;;16.31;100.00;100485.34;2085403;28;20639;-75
2023/04/27 02:09:57;;;;;;;10.85;1.73;;;;;;;16.34;100.00;100485.31;2085575;28;20095;-74
2023/04/27 02:11:18;;;;;;;5.97;1.88;;;;;;;16.35;100.00;100487.94;2077573;28;20087;-74
2023/04/27 02:12:41;;;;;;;8.43;2.03;;;;;;;16.34;100.00;100493.31;2074343;28;20127;-74
2023/04/27 02:14:04;;;;;;;6.78;1.60;;;;;;;16.33;100.00;100496.88;2065650;28;20509;-74
2023/04/27 02:15:26;;;;;;;5.35;1.48;;;;;;;16.35;100.00;100497.72;2066739;28;20061;-74
2023/04/27 02:16:48;;;;;;;;;;;;;;;16.31;100.00;100486.22;2061563;28;20137;-74
2023/04/27 02:18:10;;;;;;;15.02;2.40;;;;;;;16.31;100.00;100494.22;2075054;28;20440;-75
2023/04/27 02:19:32;;;;;;;11.85;2.38;;;;;;;16.33;100.00;100492.44;2071650;28;20050;-74
2023/04/27 02:20:55;;;;;;;8.52;1.60;;;;;;;16.36;100.00;100494.16;2060761;28;20442;-75
2023/04/27 02:22:18;;;;;;;10.40;1.60;;;;;;;16.33;100.00;100494.22;2074668;28;20092;-75
2023/04/27 02:23:40;;;;;;;6.47;1.77;;;;;;;16.32;100.00;100492.44;2071747;28;20064;-74
2023/04/27 02:25:05;;;;;;;6.25;1.42;;;;;;;16.32;100.00;100495.09;2063493;28;20115;-74
2023/04/27 02:26:28;;;;;;;8.38;1.83;;;;;;;16.33;100.00;100502.22;2061365;28;20074;-74
2023/04/27 02:27:51;;;;;;;6.15;1.35;;;;;;;16.33;100.00;100504.88;2071448;28;20488;-74
2023/04/27 02:29:15;;;;;;;8.63;1.50;;;;;;;16.33;100.00;100505.75;2063258;28;20050;-75
2023/04/27 02:30:37;;;;;;;7.93;2.00;;;;;;;16.33;100.00;100510.19;2059307;28;20042;-74
2023/04/27 02:31:59;;;;;;;8.60;1.48;;;;;;;16.33;100.00;100511.09;2059924;28;20038;-74
2023/04/27 02:33:20;;;;;;;8.30;1.80;;;;;;;16.33;100.00;100524.41;2068147;28;20750;-74
2023/04/27 02:34:43;;;;;;;9.60;1.67;;;;;;;16.32;100.00;100519.09;2066015;28;20074;-74
2023/04/27 02:36:06;;;;;;;6.97;1.55;;;;;;;16.31;100.00;100519.97;2072872;28;20054;-74
2023/04/27 02:37:27;;;;;;;9.13;1.80;;;;;;;16.29;100.00;100524.44;2070797;28;20149;-74
2023/04/27 02:38:49;;;;;;;5.40;1.30;;;;;;;16.26;100.00;100528.03;2062735;28;20054;-74
2023/04/27 02:40:12;;;;;;;6.35;1.90;;;;;;;16.25;100.00;100528.03;2067794;28;20045;-74
2023/04/27 02:41:35;;;;;;;7.22;1.60;;;;;;;16.23;100.00;100538.72;2071023;28;20073;-74
2023/04/27 02:42:56;;;;;;;10.35;1.50;;;;;;;16.22;100.00;100542.25;2073336;28;20441;-74
2023/04/27 02:44:18;;;;;;;8.63;1.75;;;;;;;16.22;100.00;100528.06;2078638;28;20088;-74
2023/04/27 02:45:39;;;;;;;7.47;2.00;;;;;;;16.21;100.00;100531.66;2070625;28;20128;-74
2023/04/27 02:47:02;;;;;;;9.05;1.67;;;;;;;16.17;100.00;100527.25;2070871;28;20052;-74
2023/04/27 02:48:25;;;;;;;6.10;1.50;;;;;;;16.14;100.00;100536.16;2084472;28;20152;-74
2023/04/27 02:49:46;;;;;;;9.43;1.67;;;;;;;16.13;100.00;100545.03;2072968;28;20049;-74
2023/04/27 02:51:09;;;;;;;6.63;1.63;;;;;;;16.12;100.00;100532.63;2075523;28;20144;-74
2023/04/27 02:52:31;;;;;;;7.38;1.70;;;;;;;16.15;100.00;100534.34;2086858;28;20587;-74
2023/04/27 02:53:53;;;;;;;9.52;2.05;;;;;;;16.16;100.00;100528.13;2078882;28;20140;-74
2023/04/27 02:55:17;;;;;;;7.40;1.90;;;;;;;16.15;100.00;100529.91;2078715;28;20077;-74
2023/04/27 02:56:38;;;;;;;6.38;1.45;;;;;;;16.13;100.00;100531.72;2084210;28;20388;-74
2023/04/27 02:58:01;;;;;;;8.13;1.73;;;;;;;16.11;100.00;100528.19;2086898;28;20057;-74
2023/04/27 02:59:24;;;;;;;12.70;2.25;;;;;;;16.07;100.00;100530.91;2078607;28;20444;-74
2023/04/27 03:00:45;;;;;;;10.48;1.90;;;;;;;16.05;100.00;100527.38;2083105;28;20045;-74
2023/04/27 03:02:08;;;;;;;13.18;2.13;;;;;;;16.02;100.00;100535.38;2080177;28;20437;-74
2023/04/27 03:03:30;;;;;;;9.35;1.92;;;;;;;16.01;100.00;100538.97;2080720;28;20041;-74
2023/04/27 03:04:52;;;;;;;9.43;1.80;;;;;;;16.01;100.00;100538.97;2081067;28;20141;-74
2023/04/27 03:06:15;;;;;;;10.23;2.05;;;;;;;16.02;100.00;100535.38;2087059;28;20347;-74
2023/04/27 03:07:36;;;;;;;9.68;2.63;;;;;;;16.03;100.00;100531.81;2086948;28;20033;-74
2023/04/27 03:08:59;;;;;;;10.10;2.50;;;;;;;16.04;100.00;100539.81;2064795;28;20061;-74
2023/04/27 03:10:23;;;;;;;7.40;1.92;;;;;;;16.05;100.00;100538.03;2068503;28;20050;-74
2023/04/27 03:11:46;;;;;;;11.18;2.05;;;;;;;16.05;100.00;100528.25;2070233;28;20140;-74
2023/04/27 03:13:07;;;;;;;8.95;1.85;;;;;;;16.05;100.00;100541.56;2062185;28;20046;-75
2023/04/27 03:14:29;;;;;;;10.13;1.77;;;;;;;16.08;100.00;100536.19;2062331;28;20125;-74
2023/04/27 03:15:53;;;;;;;10.82;1.92;;;;;;;16.10;100.00;100538.84;2076286;28;20045;-74
2023/04/27 03:17:14;;;;;;;11.20;2.33;;;;;;;16.15;100.00;100537.03;2072457;28;20169;-74
2023/04/27 03:18:37;;;;;;;9.65;1.83;;;;;;;16.17;100.00;100535.22;2070287;28;20042;-74
2023/04/27 03:20:00;;;;;;;11.02;1.80;;;;;;;16.20;100.00;100541.44;2076019;28;20045;-74
2023/04/27 03:21:22;;;;;;;10.98;2.10;;;;;;;16.23;100.00;100549.38;2070562;28;20546;-74
2023/04/27 03:22:45;;;;;;;8.73;1.90;;;;;;;16.27;100.00;100545.78;2070478;28;20062;-74
2023/04/27 03:24:06;;;;;;;9.07;2.03;;;;;;;16.29;100.00;100548.41;2066423;28;20054;-74
2023/04/27 03:25:31;;;;;;;9.00;1.48;;;;;;;16.31;100.00;100551.94;2070343;28;20056;-74
2023/04/27 03:26:53;;;;;;;9.90;1.75;;;;;;;16.32;100.00;100553.72;2070277;28;20244;-74
2023/04/27 03:28:15;;;;;;;11.18;2.05;;;;;;;16.32;100.00;100559.94;2062396;28;20054;-74
2023/04/27 03:29:38;;;;;;;7.38;1.52;;;;;;;16.30;100.00;100551.06;2062226;28;20096;-74
2023/04/27 03:31:00;;;;;;;7.93;1.50;;;;;;;16.28;100.00;100555.50;2076063;28;20091;-74
2023/04/27 03:32:22;;;;;;;7.90;2.20;;;;;;;16.25;100.00;100557.34;2072495;28;20734;-74
2023/04/27 03:33:43;;;;;;;6.57;1.38;;;;;;;16.23;100.00;100543.16;2078586;28;20057;-74
2023/04/27 03:35:07;;;;;;;16.05;2.55;;;;;;;16.21;100.00;100559.13;2077736;28;20092;-74
2023/04/27 03:36:30;;;;;;;14.10;2.53;;;;;;;16.19;100.00;100552.09;2077697;28;20041;-74
2023/04/27 03:37:52;;;;;;;9.55;1.83;;;;;;;16.16;100.00;100554.78;2078692;28;20057;-74
2023/04/27 03:39:14;;;;;;;6.57;1.65;;;;;;;16.13;100.00;100553.03;2070433;28;20054;-74
2023/04/27 03:40:37;;;;;;;12.68;2.13;;;;;;;16.13;100.00;100557.47;2078179;28;20100;-74
2023/04/27 03:42:01;;;;;;;7.25;1.70;;;;;;;16.12;100.00;100555.72;2084132;28;20045;-74
2023/04/27 03:43:24;;;;;;;10.52;1.75;;;;;;;16.12;100.00;100564.59;2080999;28;20482;-74
2023/04/27 03:44:46;;;;;;;14.45;2.13;;;;;;;16.13;100.00;100566.34;2078389;28;20084;-74
2023/04/27 03:46:08;;;;;;;8.15;1.75;;;;;;;16.15;100.00;100566.31;2078141;28;20119;-74
2023/04/27 03:47:31;;;;;;;10.20;2.00;;;;;;;16.20;100.00;100573.38;2076110;28;20033;-74
2023/04/27 03:48:53;;;;;;;9.68;1.75;;;;;;;16.25;100.00;100581.31;2083747;28;20088;-74
2023/04/27 03:50:18;;;;;;;9.50;1.98;;;;;;;16.31;100.00;100583.91;2080883;28;20140;-74
2023/04/27 03:51:41;;;;;;;8.90;2.15;;;;;;;16.38;100.00;100579.41;2081038;28;20037;-74
2023/04/27 03:53:03;;;;;;;9.68;1.52;;;;;;;16.45;100.00;100573.09;2080203;28;20060;-74
2023/04/27 03:54:25;;;;;;;9.13;1.60;;;;;;;16.49;100.00;100572.16;2075695;28;20046;-74
2023/04/27 03:55:49;;;;;;;11.77;2.10;;;;;;;16.53;100.00;100572.13;2076886;28;20533;-74
2023/04/27 03:57:12;;;;;;;7.78;1.60;;;;;;;16.58;100.00;100569.41;2064088;28;20050;-74
2023/04/27 03:58:34;;;;;;;11.00;1.83;;;;;;;16.60;100.00;100576.53;2077236;28;20038;-74
2023/04/27 04:00:11;;;;;;;9.32;1.77;;;;;;;16.62;100.00;100580.03;2063782;28;20053;-74
2023/04/27 04:01:35;;;;;;;12.13;2.15;;;;;;;16.64;100.00;100580.91;2081754;28;20136;-74
2023/04/27 04:02:58;;;;;;;9.88;2.05;;;;;;;16.67;100.00;100585.31;2085238;28;20056;-74
2023/04/27 04:04:20;;;;;;;10.73;2.05;;;;;;;16.69;100.00;100583.50;2078259;28;20083;-74
2023/04/27 04:05:45;;;;;;;8.60;1.98;;;;;;;16.73;100.00;100585.25;2075640;28;20045;-74
2023/04/27 04:07:08;;;;;;;9.48;2.08;;;;;;;16.74;100.00;100586.97;2078237;28;20555;-74
2023/04/27 04:08:31;;;;;;;6.25;1.70;;;;;;;16.76;100.00;100586.97;2078282;28;20037;-74
2023/04/27 04:09:54;;;;;;;10.65;2.08;;;;;;;16.77;100.00;100580.75;2075395;28;20096;-74
2023/04/27 04:11:18;;;;;;;11.07;2.13;;;;;;;16.81;100.00;100595.78;2077959;28;20429;-74
2023/04/27 04:12:39;;;;;;;11.95;2.22;;;;;;;16.82;100.00;100589.56;2082604;28;20085;-74
2023/04/27 04:14:02;;;;;;;10.23;2.40;;;;;;;16.80;100.00;100602.06;2077698;28;20049;-74
2023/04/27 04:15:25;;;;;;;10.82;2.42;;;;;;;16.81;100.00;100601.13;2086293;28;20413;-73
2023/04/27 04:16:47;;;;;;;12.95;2.17;;;;;;;16.81;100.00;100595.78;2086584;28;20044;-74
2023/04/27 04:18:09;;;;;;;14.20;2.30;;;;;;;16.82;100.00;100595.78;2080627;28;20136;-74
2023/04/27 04:19:34;;;;;;;12.88;2.35;;;;;;;16.85;100.00;100600.19;2075692;28;20056;-74
2023/04/27 04:20:55;;;;;;;14.35;2.65;;;;;;;16.86;100.00;100608.19;2074517;28;20067;-74
2023/04/27 04:22:18;;;;;;;13.40;2.72;;;;;;;16.87;100.00;100609.06;2075051;28;20049;-74
2023/04/27 04:23:41;;;;;;;9.65;2.17;;;;;;;16.88;100.00;100611.69;2075624;28;20269;-74
2023/04/27 04:25:03;;;;;;;11.18;2.72;;;;;;;16.92;100.00;100617.88;2077895;28;20053;-74
2023/04/27 04:26:27;;;;;;;;;;;;;;;16.89;100.00;100620.59;2075771;28;20535;-74
2023/04/27 04:27:49;;;;;;;10.60;2.47;;;;;;;16.88;100.00;100625.03;2073309;28;19936;-74
2023/04/27 04:29:12;;;;;;;11.63;3.10;;;;;;;16.90;100.00;100633.00;2075487;28;20057;-74
2023/04/27 04:30:33;;;;;;;10.43;2.60;;;;;;;16.90;100.00;100633.00;2075367;28;20712;-74
2023/04/27 04:31:56;;;;;;;15.45;3.40;;;;;;;16.90;100.00;100643.69;2078100;28;20114;-74
2023/04/27 04:33:19;;;;;;;11.80;2.40;;;;;;;16.91;100.00;100643.66;2075122;28;20045;-74
2023/04/27 04:34:40;;;;;;;17.58;3.05;;;;;;;16.93;100.00;100643.66;2073116;28;20432;-74
2023/04/27 04:36:04;;;;;;;11.13;3.22;;;;;;;16.96;100.00;100648.94;2061792;28;20080;-74
2023/04/27 04:37:25;;;;;;;15.35;2.92;;;;;;;16.98;100.00;100644.47;2067371;28;20145;-74
2023/04/27 04:38:48;;;;;;;14.45;2.78;;;;;;;17.01;100.00;100647.09;2069598;28;20465;-74
2023/04/27 04:40:12;;;;;;;13.23;2.88;;;;;;;17.02;100.00;100651.53;2064319;28;20141;-74
2023/04/27 04:41:37;;;;;;;21.50;3.85;;;;;;;17.03;100.00;100654.19;2067478;28;20084;-75
2023/04/27 04:43:03;;;;;;;14.20;2.90;;;;;;;17.03;100.00;100659.50;2066398;28;20077;-73
2023/04/27 04:44:25;;;;;;;16.40;2.53;;;;;;;17.03;100.00;100656.84;2069733;28;20045;-74
2023/04/27 04:45:47;;;;;;;16.08;2.75;;;;;;;17.04;100.00;100658.63;2061562;28;20043;-74
2023/04/27 04:47:10;;;;;;;12.00;2.83;;;;;;;17.07;100.00;100658.56;2064137;28;20145;-74
2023/04/27 04:48:32;;;;;;;14.27;2.80;;;;;;;17.10;100.00;100654.97;2067336;28;20034;-74
2023/04/27 04:49:54;;;;;;;16.08;2.97;;;;;;;17.13;100.00;100668.31;2069557;28;20049;-74
2023/04/27 04:51:17;;;;;;;16.67;2.80;;;;;;;17.16;100.00;100662.03;2061630;28;20144;-74
2023/04/27 04:52:40;;;;;;;18.80;3.03;;;;;;;17.19;100.00;100664.66;2067122;28;20077;-74
2023/04/27 04:54:01;;;;;;;13.20;2.75;;;;;;;17.21;100.00;100671.72;2061040;28;20137;-74
2023/04/27 04:55:26;;;;;;;14.05;2.65;;;;;;;17.21;100.00;100666.38;2067059;28;20129;-74
2023/04/27 04:56:50;;;;;;;15.05;3.20;;;;;;;17.23;100.00;100667.25;2061888;28;20054;-74
2023/04/27 04:58:13;;;;;;;13.80;2.95;;;;;;;17.25;100.00;100669.91;2077309;28;20885;-74
2023/04/27 04:59:35;;;;;;;16.50;2.78;;;;;;;17.26;100.00;100672.56;2077640;28;20049;-74
2023/04/27 05:00:57;;;;;;;18.90;3.28;;;;;;;17.30;100.00;100673.41;2083792;28;20041;-75
2023/04/27 05:02:22;;;;;;;19.10;4.53;;;;;;;17.32;100.00;100669.81;2080295;28;20095;-74
2023/04/27 05:03:46;;;;;;;14.43;3.08;;;;;;;17.35;100.00;100671.53;2082004;28;20041;-74
2023/04/27 05:05:09;;;;;;;19.67;3.42;;;;;;;17.37;100.00;100673.31;2075224;28;20050;-74
2023/04/27 05:06:32;;;;;;;16.98;2.85;;;;;;;17.39;100.00;100676.81;2080725;28;20567;-74
2023/04/27 05:07:55;;;;;;;13.10;2.67;;;;;;;17.42;100.00;100674.13;2084077;28;20056;-74
2023/04/27 05:09:17;;;;;;;15.82;3.47;;;;;;;17.44;100.00;100675.00;2086012;28;20060;-74
2023/04/27 05:10:39;;;;;;;16.25;3.10;;;;;;;17.44;100.00;100672.31;2088087;28;20110;-74
2023/04/27 05:12:03;;;;;;;18.17;3.50;;;;;;;17.47;100.00;100676.72;2085970;28;20045;-74
2023/04/27 05:13:26;;;;;;;16.90;3.05;;;;;;;17.47;100.00;100676.72;2077865;28;20049;-74
2023/04/27 05:14:48;;;;;;;12.23;3.13;;;;;;;17.47;100.00;100674.94;2069374;28;20049;-74
2023/04/27 05:16:10;;;;;;;16.80;3.00;;;;;;;17.48;100.00;100683.81;2072174;28;20042;-74
2023/04/27 05:17:33;;;;;;;19.55;3.35;;;;;;;17.47;100.00;100688.28;2078955;28;20049;-74
2023/04/27 05:18:55;;;;;;;13.75;3.05;;;;;;;17.48;100.00;100689.16;2071834;28;20050;-74
2023/04/27 05:20:18;;;;;;;16.45;3.80;;;;;;;17.48;100.00;100682.03;2066991;28;20046;-74
2023/04/27 05:21:39;;;;;;;15.13;2.85;;;;;;;17.51;100.00;100681.13;2066562;28;20057;-74
2023/04/27 05:23:02;;;;;;;16.98;3.03;;;;;;;17.51;100.00;100676.66;2066470;28;20561;-74
2023/04/27 05:24:25;;;;;;;18.80;3.10;;;;;;;17.53;100.00;100674.84;2069204;28;20422;-74
2023/04/27 05:25:47;;;;;;;10.63;3.20;;;;;;;17.58;100.00;100673.91;2075253;28;20058;-74
2023/04/27 05:27:13;;;;;;;13.38;3.10;;;;;;;17.62;100.00;100673.88;2077509;28;20045;-74
2023/04/27 05:28:35;;;;;;;16.75;3.47;;;;;;;17.67;100.00;100674.69;2077891;28;20037;-74
2023/04/27 05:29:58;;;;;;;13.05;3.42;;;;;;;17.72;100.00;100679.97;2069370;28;20053;-74
2023/04/27 05:31:20;;;;;;;13.15;3.45;;;;;;;17.75;100.00;100675.44;2073896;28;20045;-74
2023/04/27 05:32:43;;;;;;;17.20;3.50;;;;;;;17.83;100.00;100680.69;2063779;28;20042;-74
2023/04/27 05:34:05;;;;;;;11.88;2.78;;;;;;;17.88;100.00;100669.00;2066821;28;20495;-73
2023/04/27 05:35:28;;;;;;;11.63;3.20;;;;;;;17.98;100.00;100671.56;2077013;28;20041;-74
2023/04/27 05:36:50;;;;;;;13.38;3.80;;;;;;;18.07;100.00;100669.59;2072033;28;20093;-73
2023/04/27 05:38:16;;;;;;;13.98;3.58;;;;;;;18.13;100.00;100671.28;2077146;28;20053;-73
2023/04/27 05:39:39;;;;;;;12.18;3.15;;;;;;;18.22;100.00;100668.47;2071628;28;20437;-73
2023/04/27 05:41:01;;;;;;;12.48;3.10;;;;;;;18.33;100.00;100671.81;2069474;28;20042;-74
2023/04/27 05:42:25;;;;;;;13.98;3.25;;;;;;;18.41;100.00;100674.34;2061172;28;20092;-74
2023/04/27 05:43:48;;;;;;;10.68;3.22;;;;;;;18.45;100.00;100673.38;2061249;28;20789;-73
2023/04/27 05:45:10;;;;;;;18.10;4.03;;;;;;;18.48;100.00;100676.03;2069016;28;20060;-74
2023/04/27 05:46:32;;;;;;;;;;;;;;;18.46;100.00;100672.47;2069500;28;20096;-73
2023/04/27 05:47:53;;;;;;;11.23;2.65;;;;;;;18.50;100.00;100676.88;2071777;28;19921;-74
2023/04/27 05:49:15;;;;;;;13.23;3.20;;;;;;;18.78;100.00;100679.94;2061187;28;20093;-73
2023/04/27 05:50:38;;;;;;;14.70;3.38;;;;;;;19.30;100.00;100679.75;2066590;28;20718;-74
2023/04/27 05:52:00;;;;;;;10.23;2.67;;;;;;;19.63;100.00;100678.16;2077145;28;20079;-74
2023/04/27 05:53:22;;;;;;;13.35;2.95;;;;;;;19.69;100.00;100678.03;2063629;28;20686;-73
2023/04/27 05:54:47;;;;;;;13.60;2.80;;;;;;;19.60;100.00;100683.59;2074444;28;20088;-74
2023/04/27 05:56:10;;;;;;;11.32;3.45;;;;;;;19.45;100.00;100676.75;2071672;28;20053;-74
2023/04/27 05:57:34;;;;;;;9.13;3.00;;;;;;;19.27;100.00;100682.50;2077599;28;20048;-74
2023/04/27 05:58:57;;;;;;;14.00;3.63;;;;;;;19.09;100.00;100682.00;2071397;28;20483;-74
2023/04/27 06:00:21;;;;;;;15.38;3.25;;;;;;;18.99;100.00;100685.75;2060946;28;20190;-74
2023/04/27 06:01:44;;;;;;;15.23;2.85;;;;;;;18.93;100.00;100679.63;2067186;28;20196;-74
2023/04/27 06:03:06;;;;;;;10.98;2.70;;;;;;;18.92;100.00;100688.56;2077161;28;20073;-74
2023/04/27 06:04:29;;;;;;;13.95;3.30;;;;;;;18.92;100.00;100681.44;2063363;28;20454;-74
2023/04/27 06:05:55;;;;;;;12.50;3.08;;;;;;;18.97;100.00;100682.22;2068325;28;20050;-74
2023/04/27 06:07:17;;;;;;;14.05;3.03;;;;;;;19.00;100.00;100684.84;2061394;28;20047;-74
2023/04/27 06:08:38;;;;;;;12.13;2.90;;;;;;;19.04;100.00;100694.56;2066768;28;20406;-74
2023/04/27 06:10:00;;;;;;;13.80;3.25;;;;;;;19.02;100.00;100691.06;2061210;28;20054;-74
2023/04/27 06:11:23;;;;;;;17.15;3.53;;;;;;;19.02;100.00;100691.06;2069067;28;20074;-74
2023/04/27 06:12:47;;;;;;;11.07;3.38;;;;;;;19.01;100.00;100689.28;2069223;28;20053;-74
2023/04/27 06:14:09;;;;;;;13.60;3.88;;;;;;;18.99;100.00;100693.78;2077725;28;20502;-74
2023/04/27 06:15:32;;;;;;;14.80;3.83;;;;;;;18.96;100.00;100696.53;2071522;28;20065;-74
2023/04/27 06:16:54;;;;;;;11.60;3.20;;;;;;;18.91;100.00;100700.19;2068981;28;20042;-72